sensor_id;sensor_type;location;lat;lon;timestamp;pressure;altitude;pressure_sealevel;temperature;humidity
56632;BME280;42503;39.928;-75.152;2023-06-14T00:09:08;100451.69;;;27.74;39.51
56632;BME280;42503;39.928;-75.152;2023-06-14T00:19:13;100455.31;;;27.74;39.43
56632;BME280;42503;39.928;-75.152;2023-06-14T00:29:15;100444.88;;;27.75;39.50
56632;BME280;42503;39.928;-75.152;2023-06-14T00:39:16;100449.69;;;27.74;39.71
56632;BME280;42503;39.928;-75.152;2023-06-14T00:49:18;100449.69;;;27.74;39.44
56632;BME280;42503;39.928;-75.152;2023-06-14T00:59:20;100459.75;;;27.75;39.73
56632;BME280;42503;39.928;-75.152;2023-06-14T01:09:37;100446.69;;;27.71;39.74
56632;BME280;42503;39.928;-75.152;2023-06-14T01:19:43;100441.13;;;27.62;39.45
56632;BME280;42503;39.928;-75.152;2023-06-14T01:29:45;100458.13;;;27.74;39.51
56632;BME280;42503;39.928;-75.152;2023-06-14T01:39:47;100461.75;;;27.75;39.73
56632;BME280;42503;39.928;-75.152;2023-06-14T01:49:50;100446.53;;;27.67;39.69
56632;BME280;42503;39.928;-75.152;2023-06-14T01:59:52;100475.81;;;27.75;39.66
56632;BME280;42503;39.928;-75.152;2023-06-14T02:09:53;100473.34;;;27.73;39.60
56632;BME280;42503;39.928;-75.152;2023-06-14T02:19:55;100487.88;;;27.75;39.71
56632;BME280;42503;39.928;-75.152;2023-06-14T02:29:58;100480.25;;;27.76;39.49
56632;BME280;42503;39.928;-75.152;2023-06-14T02:40:01;100483.78;;;27.73;39.49
56632;BME280;42503;39.928;-75.152;2023-06-14T02:50:06;100482.25;;;27.75;39.62
56632;BME280;42503;39.928;-75.152;2023-06-14T03:00:08;100463.75;;;27.74;39.69
56632;BME280;42503;39.928;-75.152;2023-06-14T03:10:11;100436.44;;;27.75;39.64
56632;BME280;42503;39.928;-75.152;2023-06-14T03:20:14;100419.59;;;27.75;39.50
56632;BME280;42503;39.928;-75.152;2023-06-14T03:30:15;100413.97;;;27.75;39.56
56632;BME280;42503;39.928;-75.152;2023-06-14T03:40:18;100421.94;;;27.73;39.45
56632;BME280;42503;39.928;-75.152;2023-06-14T03:50:21;100417.94;;;27.74;39.65
56632;BME280;42503;39.928;-75.152;2023-06-14T04:00:22;100423.56;;;27.74;39.59
56632;BME280;42503;39.928;-75.152;2023-06-14T04:10:24;100405.88;;;27.73;39.59
56632;BME280;42503;39.928;-75.152;2023-06-14T04:20:25;100394.97;;;27.72;39.59
56632;BME280;42503;39.928;-75.152;2023-06-14T04:30:27;100384.56;;;27.72;39.60
56632;BME280;42503;39.928;-75.152;2023-06-14T04:40:35;100383.41;;;27.73;39.70
56632;BME280;42503;39.928;-75.152;2023-06-14T04:50:47;100353.94;;;27.71;39.75
56632;BME280;42503;39.928;-75.152;2023-06-14T05:00:54;100348.84;;;27.73;39.83
56632;BME280;42503;39.928;-75.152;2023-06-14T05:10:56;100342.41;;;27.72;39.71
56632;BME280;42503;39.928;-75.152;2023-06-14T05:20:58;100346.31;;;27.71;39.65
56632;BME280;42503;39.928;-75.152;2023-06-14T05:30:59;100322.88;;;27.67;39.68
56632;BME280;42503;39.928;-75.152;2023-06-14T05:41:00;100346.31;;;27.71;39.95
56632;BME280;42503;39.928;-75.152;2023-06-14T05:51:05;100322.41;;;27.65;39.77
56632;BME280;42503;39.928;-75.152;2023-06-14T06:01:09;100335.94;;;27.72;39.79
56632;BME280;42503;39.928;-75.152;2023-06-14T06:11:14;100329.44;;;27.71;39.86
56632;BME280;42503;39.928;-75.152;2023-06-14T06:21:15;100303.53;;;27.66;39.77
56632;BME280;42503;39.928;-75.152;2023-06-14T06:31:18;100300.53;;;27.71;39.86
56632;BME280;42503;39.928;-75.152;2023-06-14T06:41:19;100296.06;;;27.70;39.83
56632;BME280;42503;39.928;-75.152;2023-06-14T06:51:21;100286.00;;;27.69;39.84
56632;BME280;42503;39.928;-75.152;2023-06-14T07:01:22;100274.75;;;27.69;40.08
56632;BME280;42503;39.928;-75.152;2023-06-14T07:11:28;100254.25;;;27.68;39.94
56632;BME280;42503;39.928;-75.152;2023-06-14T07:21:29;100237.41;;;27.68;39.86
56632;BME280;42503;39.928;-75.152;2023-06-14T07:31:31;100234.59;;;27.68;40.08
56632;BME280;42503;39.928;-75.152;2023-06-14T07:41:32;100219.22;;;27.66;40.10
56632;BME280;42503;39.928;-75.152;2023-06-14T07:51:34;100197.56;;;27.66;40.22
56632;BME280;42503;39.928;-75.152;2023-06-14T08:01:35;100191.94;;;27.66;39.95
56632;BME280;42503;39.928;-75.152;2023-06-14T08:11:37;100184.66;;;27.65;39.92
56632;BME280;42503;39.928;-75.152;2023-06-14T08:21:38;100164.53;;;27.63;40.27
56632;BME280;42503;39.928;-75.152;2023-06-14T08:31:43;100156.09;;;27.63;40.32
56632;BME280;42503;39.928;-75.152;2023-06-14T08:41:47;100133.13;;;27.61;40.26
56632;BME280;42503;39.928;-75.152;2023-06-14T08:51:56;100142.06;;;27.63;40.33
56632;BME280;42503;39.928;-75.152;2023-06-14T09:01:58;100141.19;;;27.62;40.28
56632;BME280;42503;39.928;-75.152;2023-06-14T09:12:01;100125.38;;;27.58;40.33
56632;BME280;42503;39.928;-75.152;2023-06-14T09:22:04;100119.06;;;27.61;40.22
56632;BME280;42503;39.928;-75.152;2023-06-14T09:32:05;100109.81;;;27.60;40.35
56632;BME280;42503;39.928;-75.152;2023-06-14T09:42:17;100103.13;;;27.53;40.22
56632;BME280;42503;39.928;-75.152;2023-06-14T09:52:22;100114.63;;;27.60;40.35
56632;BME280;42503;39.928;-75.152;2023-06-14T10:02:35;100124.22;;;27.59;40.44
56632;BME280;42503;39.928;-75.152;2023-06-14T10:12:38;100118.63;;;27.59;40.47
56632;BME280;42503;39.928;-75.152;2023-06-14T10:22:47;100087.78;;;27.50;40.52
56632;BME280;42503;39.928;-75.152;2023-06-14T10:33:06;100095.84;;;27.52;40.44
56632;BME280;42503;39.928;-75.152;2023-06-14T10:43:24;100094.34;;;27.54;40.45
56632;BME280;42503;39.928;-75.152;2023-06-14T10:53:25;100068.94;;;27.51;40.45
56632;BME280;42503;39.928;-75.152;2023-06-14T11:03:53;100079.00;;;27.52;40.68
56632;BME280;42503;39.928;-75.152;2023-06-14T11:14:04;100083.44;;;27.53;40.46
56632;BME280;42503;39.928;-75.152;2023-06-14T11:24:14;100097.50;;;27.53;40.44
56632;BME280;42503;39.928;-75.152;2023-06-14T11:34:17;100055.31;;;27.41;40.61
56632;BME280;42503;39.928;-75.152;2023-06-14T11:44:18;100074.31;;;27.56;40.58
56632;BME280;42503;39.928;-75.152;2023-06-14T11:54:20;100078.78;;;27.57;40.50
56632;BME280;42503;39.928;-75.152;2023-06-14T12:04:27;100060.00;;;27.49;40.61
56632;BME280;42503;39.928;-75.152;2023-06-14T12:14:28;100075.16;;;27.56;40.69
56632;BME280;42503;39.928;-75.152;2023-06-14T12:24:32;100063.69;;;27.61;40.71
56632;BME280;42503;39.928;-75.152;2023-06-14T12:34:33;100057.81;;;27.54;40.89
56632;BME280;42503;39.928;-75.152;2023-06-14T12:44:40;100063.09;;;27.56;40.84
56632;BME280;42503;39.928;-75.152;2023-06-14T12:54:43;100047.41;;;27.55;40.60
56632;BME280;42503;39.928;-75.152;2023-06-14T13:04:45;100029.38;;;27.56;40.85
56632;BME280;42503;39.928;-75.152;2023-06-14T13:14:46;100018.94;;;27.56;40.77
56632;BME280;42503;39.928;-75.152;2023-06-14T13:24:48;100010.16;;;27.58;40.91
56632;BME280;42503;39.928;-75.152;2023-06-14T13:34:49;100005.38;;;27.58;40.93
56632;BME280;42503;39.928;-75.152;2023-06-14T13:44:51;99987.44;;;27.51;40.71
56632;BME280;42503;39.928;-75.152;2023-06-14T13:54:53;100000.56;;;27.59;40.65
56632;BME280;42503;39.928;-75.152;2023-06-14T14:04:55;99993.28;;;27.58;40.72
56632;BME280;42503;39.928;-75.152;2023-06-14T14:14:58;99994.13;;;27.58;40.73
56632;BME280;42503;39.928;-75.152;2023-06-14T14:24:59;99983.72;;;27.59;40.67
56632;BME280;42503;39.928;-75.152;2023-06-14T14:35:01;99990.47;;;27.58;40.92
56632;BME280;42503;39.928;-75.152;2023-06-14T14:45:02;99995.78;;;27.59;40.70
56632;BME280;42503;39.928;-75.152;2023-06-14T14:55:04;100004.66;;;27.61;40.68
56632;BME280;42503;39.928;-75.152;2023-06-14T15:05:06;99990.47;;;27.58;40.64
56632;BME280;42503;39.928;-75.152;2023-06-14T15:15:08;100006.53;;;27.57;40.70
56632;BME280;42503;39.928;-75.152;2023-06-14T15:25:10;99993.53;;;27.53;41.06
56632;BME280;42503;39.928;-75.152;2023-06-14T15:35:11;99994.97;;;27.59;40.79
56632;BME280;42503;39.928;-75.152;2023-06-14T15:45:13;100000.91;;;27.57;40.83
56632;BME280;42503;39.928;-75.152;2023-06-14T15:55:14;99977.97;;;27.55;40.60
56632;BME280;42503;39.928;-75.152;2023-06-14T16:05:16;99967.53;;;27.56;40.66
56632;BME280;42503;39.928;-75.152;2023-06-14T16:15:20;99961.09;;;27.55;40.83
56632;BME280;42503;39.928;-75.152;2023-06-14T16:25:21;99940.63;;;27.55;40.89
56632;BME280;42503;39.928;-75.152;2023-06-14T16:35:23;99954.66;;;27.55;40.77
56632;BME280;42503;39.928;-75.152;2023-06-14T16:45:24;99932.88;;;27.52;40.76
56632;BME280;42503;39.928;-75.152;2023-06-14T16:55:26;99934.50;;;27.53;40.81
56632;BME280;42503;39.928;-75.152;2023-06-14T17:05:27;99962.63;;;27.53;40.99
56632;BME280;42503;39.928;-75.152;2023-06-14T17:15:29;99966.59;;;27.52;40.89
56632;BME280;42503;39.928;-75.152;2023-06-14T17:25:30;99953.25;;;27.49;41.06
56632;BME280;42503;39.928;-75.152;2023-06-14T17:35:32;99960.84;;;27.48;40.95
56632;BME280;42503;39.928;-75.152;2023-06-14T17:45:33;99950.44;;;27.49;40.87
56632;BME280;42503;39.928;-75.152;2023-06-14T17:55:35;99894.22;;;27.49;41.15
56632;BME280;42503;39.928;-75.152;2023-06-14T18:05:36;99887.09;;;27.51;41.15
56632;BME280;42503;39.928;-75.152;2023-06-14T18:15:38;99869.44;;;27.51;41.59
56632;BME280;42503;39.928;-75.152;2023-06-14T18:25:39;99858.19;;;27.51;41.56
56632;BME280;42503;39.928;-75.152;2023-06-14T18:35:41;99850.22;;;27.53;41.81
56632;BME280;42503;39.928;-75.152;2023-06-14T18:45:42;99826.91;;;27.52;41.73
56632;BME280;42503;39.928;-75.152;2023-06-14T18:55:44;99833.34;;;27.53;41.92
56632;BME280;42503;39.928;-75.152;2023-06-14T19:05:47;99845.06;;;27.55;42.48
56632;BME280;42503;39.928;-75.152;2023-06-14T19:15:48;99820.25;;;27.57;43.50
56632;BME280;42503;39.928;-75.152;2023-06-14T19:25:54;99843.53;;;27.57;43.35
56632;BME280;42503;39.928;-75.152;2023-06-14T19:35:55;99839.91;;;27.57;43.39
56632;BME280;42503;39.928;-75.152;2023-06-14T19:46:02;99869.66;;;27.58;43.53
56632;BME280;42503;39.928;-75.152;2023-06-14T19:56:04;99831.03;;;27.55;43.46
56632;BME280;42503;39.928;-75.152;2023-06-14T20:06:07;99821.06;;;27.57;43.65
56632;BME280;42503;39.928;-75.152;2023-06-14T20:16:13;99813.44;;;27.58;43.53
56632;BME280;42503;39.928;-75.152;2023-06-14T20:26:14;99817.44;;;27.57;43.51
56632;BME280;42503;39.928;-75.152;2023-06-14T20:36:16;99811.47;;;27.58;43.81
56632;BME280;42503;39.928;-75.152;2023-06-14T20:46:22;99794.63;;;27.58;43.50
56632;BME280;42503;39.928;-75.152;2023-06-14T20:56:29;99787.34;;;27.57;43.49
56632;BME280;42503;39.928;-75.152;2023-06-14T21:06:30;99796.94;;;27.56;43.54
56632;BME280;42503;39.928;-75.152;2023-06-14T21:16:33;99781.72;;;27.57;43.21
56632;BME280;42503;39.928;-75.152;2023-06-14T21:26:34;99764.97;;;27.49;43.36
56632;BME280;42503;39.928;-75.152;2023-06-14T21:36:36;99782.53;;;27.58;42.58
56632;BME280;42503;39.928;-75.152;2023-06-14T21:46:40;99785.81;;;27.60;42.58
56632;BME280;42503;39.928;-75.152;2023-06-14T21:56:42;99793.44;;;27.59;42.29
56632;BME280;42503;39.928;-75.152;2023-06-14T22:06:43;99817.44;;;27.57;42.10
56632;BME280;42503;39.928;-75.152;2023-06-14T22:16:46;99833.47;;;27.56;42.04
56632;BME280;42503;39.928;-75.152;2023-06-14T22:26:48;99856.44;;;27.58;41.96
56632;BME280;42503;39.928;-75.152;2023-06-14T22:36:57;99839.56;;;27.58;41.92
56632;BME280;42503;39.928;-75.152;2023-06-14T22:47:04;99864.03;;;27.58;41.50
56632;BME280;42503;39.928;-75.152;2023-06-14T22:57:11;99882.06;;;27.57;41.69
56632;BME280;42503;39.928;-75.152;2023-06-14T23:07:17;99902.66;;;27.61;41.51
56632;BME280;42503;39.928;-75.152;2023-06-14T23:17:22;99902.22;;;27.59;41.66
56632;BME280;42503;39.928;-75.152;2023-06-14T23:27:24;99905.34;;;27.57;41.71
56632;BME280;42503;39.928;-75.152;2023-06-14T23:37:25;99907.34;;;27.57;41.62
56632;BME280;42503;39.928;-75.152;2023-06-14T23:47:30;99928.91;;;27.53;41.73
56632;BME280;42503;39.928;-75.152;2023-06-14T23:57:31;99951.50;;;27.56;41.62
